BKK8H / G-FBKH 7700 Squawk Report (18th of April, 2018)

Time Lat Lon Altitude Heading Speed Vertical Rate
2018-04-18 19:27:18 GMT 51.815083 -1.489237 1,075 73 332 -7080
2018-04-18 19:27:18 GMT 51.815083 -1.489237 4,700 73 332 -7080
2018-04-18 19:27:04 GMT 51.811672 -1.514244 5,550 71 339 -5880
2018-04-18 19:26:53 GMT 51.810207 -1.532351 6,325 78 199 0
2018-04-18 19:26:43 GMT 51.808990 -1.548493 6,750 65 291 -2580
2018-04-18 19:26:33 GMT 51.806335 -1.565949 7,425 78 244 -2340
2018-04-18 19:26:23 GMT 51.801945 -1.581265 8,075 93 265 -3060
2018-04-18 19:26:13 GMT 51.802555 -1.602884 8,625 79 221 -3840
2018-04-18 19:26:00 GMT 51.800110 -1.624067 9,300 77 245 -2880
2018-04-18 19:25:48 GMT 51.791367 -1.640767 9,950 107 315 0
2018-04-18 19:25:37 GMT 51.794617 -1.664029 10,525 80 224 -2280
2018-04-18 19:25:26 GMT 51.792805 -1.682299 10,900 78 219 -420
2018-04-18 19:25:15 GMT 51.790615 -1.700034 11,350 59 206 -840
2018-04-18 19:25:00 GMT 51.783432 -1.720018 11,800 82 216 -60
2018-04-18 19:24:50 GMT 51.782204 -1.736114 11,975 32 241 0
2018-04-18 19:24:39 GMT 51.771912 -1.746916 12,000 9 225 0
2018-04-18 19:24:28 GMT 51.760441 -1.749381 12,000 7 201 0
2018-04-18 19:24:17 GMT 51.748234 -1.747253 12,000 333 233 0
2018-04-18 19:24:06 GMT 51.738468 -1.739986 12,000 295 219 0
2018-04-18 19:23:55 GMT 51.734516 -1.724817 12,000 269 210 0
2018-04-18 19:23:45 GMT 51.734657 -1.709677 12,000 252 175 0
2018-04-18 19:23:34 GMT 51.737392 -1.695917 12,000 241 169 0
2018-04-18 19:23:23 GMT 51.741035 -1.683060 12,000 260 211 0
2018-04-18 19:23:12 GMT 51.743847 -1.668411 12,000 261 192 0
2018-04-18 19:23:01 GMT 51.745552 -1.653840 12,000 252 190 0
2018-04-18 19:22:49 GMT 51.748745 -1.637726 12,000 249 188 0
2018-04-18 19:22:38 GMT 51.751728 -1.623129 12,000 252 201 0
2018-04-18 19:22:28 GMT 51.754562 -1.608745 12,000 240 161 0
2018-04-18 19:22:17 GMT 51.757034 -1.595346 12,000 258 208 240
2018-04-18 19:22:06 GMT 51.759232 -1.578594 12,000 241 169 1140
2018-04-18 19:21:50 GMT 51.765182 -1.560728 11,850 258 188 2100
2018-04-18 19:21:39 GMT 51.767010 -1.545550 11,575 250 171 3180
2018-04-18 19:21:29 GMT 51.769676 -1.533435 11,075 253 131 3720
2018-04-18 19:21:19 GMT 51.771889 -1.522050 10,475 252 151 3480
2018-04-18 19:21:08 GMT 51.776573 -1.514626 9,800 270 220 1020
2018-04-18 19:20:58 GMT 51.776669 -1.498243 9,525 249 157 10260
2018-04-18 19:20:47 GMT 51.779308 -1.486817 8,950 254 153 3900
2018-04-18 19:20:36 GMT 51.781425 -1.474696 8,425 264 109 -1800
2018-04-18 19:20:25 GMT 51.783909 -1.462399 7,650 250 158 3180
2018-04-18 19:20:15 GMT 51.786163 -1.451007 7,125 250 90 2820
2018-04-18 19:20:05 GMT 51.788456 -1.440033 6,600 224 153 5460
2018-04-18 19:19:54 GMT 51.791092 -1.428121 5,850 252 163
We lost coverage of the aircraft here for a total of 402 minutes
2018-04-18 12:38:17 GMT 51.939148 -1.424676 1,150 123 162 -2340
2018-04-18 12:38:17 GMT 51.939148 -1.424676 4,975 123 162 -2340
2018-04-18 12:38:02 GMT 51.945423 -1.439924 5,375 125 178 -1140
2018-04-18 12:37:52 GMT 51.950607 -1.451950 5,625 128 171 -1320
2018-04-18 12:37:37 GMT 51.958488 -1.467730 5,650 142 179 -1920
2018-04-18 12:37:22 GMT 51.968319 -1.480085 6,025 142 186 0
2018-04-18 12:37:07 GMT 51.978786 -1.492265 6,500 146 223 -1140
2018-04-18 12:36:57 GMT 51.986595 -1.502091 7,000 143 174 -2400
2018-04-18 12:36:46 GMT 51.994320 -1.511353 7,525 156 181 -1920
2018-04-18 12:36:34 GMT 52.003754 -1.517952 8,025 163 180 -1560
2018-04-18 12:36:23 GMT 52.011799 -1.522606 8,500 159 156 -1080
2018-04-18 12:36:13 GMT 52.018551 -1.526813 8,975 158 166 -3960
2018-04-18 12:36:03 GMT 52.025745 -1.531304 9,100 160 164 -2760
2018-04-18 12:35:53 GMT 52.032917 -1.535495 9,300 171 133 0
2018-04-18 12:35:43 GMT 52.039627 -1.536760 9,500 220 141 -420
2018-04-18 12:35:32 GMT 52.042561 -1.525157 9,650 208 163 -600
2018-04-18 12:35:22 GMT 52.049194 -1.519201 9,850 251 167 -60
2018-04-18 12:35:10 GMT 52.051952 -1.504881 10,000 259 177 0
2018-04-18 12:35:00 GMT 52.053288 -1.491946 10,000 267 211 480
2018-04-18 12:34:48 GMT 52.053944 -1.471868 10,000 280 208 1680
2018-04-18 12:34:38 GMT 52.052105 -1.455625 9,850 289 246 2100
2018-04-18 12:34:28 GMT 52.048267 -1.438123 9,550 300 253 3780
2018-04-18 12:34:18 GMT 52.042324 -1.421701 9,125 310 246 1800
2018-04-18 12:34:07 GMT 52.034176 -1.406171 8,900 320 268 960
2018-04-18 12:33:57 GMT 52.023937 -1.393530 8,575 330 231 2040
2018-04-18 12:33:46 GMT 52.012165 -1.383365 8,225 337 249 2100
2018-04-18 12:33:36 GMT 52.001278 -1.375654 7,850 320 320 2160
2018-04-18 12:33:25 GMT 51.989136 -1.365860 7,375 323 193 1260
2018-04-18 12:33:14 GMT 51.976936 -1.356522 6,950 323 229 1560
2018-04-18 12:33:03 GMT 51.965740 -1.347736 6,675 330 220 3120
2018-04-18 12:32:52 GMT 51.955578 -1.338859 6,325 332 281

Making use of Plane Finder data

You are free to use the raw flight data, aircraft information and images provided in this report for your own purposes provided the data is correctly attributed to Plane Finder. We ask that you please credit Plane Finder and link to planefinder.net in close proximity to the content.

Optionally one of the following logos (no smaller then 150x24px) can be used and must link to planefinder.net

Embedding the Plane Finder map

You are welcome to embed the Plane Finder playback map on your website to offer visitors a more interactive experience. We suggest using the following HTML code:

<iframe src="//planefinder.net/data/report/BKK8H-G-FBKH-7700-squawk-2018-04-18/map" width="800" height="600" seamless="seamless"></iframe>

Where our data comes from

Plane Finder has a global network of data feeds and antenna radars that receive data broadcast directly from aircraft. The primary technologies used are ADS-B and MLAT. We also show feeds from the FAA and a FLARM glider feed.

Click here to find out more about the Plane Finder network.

How we collect our data